createdAt,value
2022-11-06T00:01:08.467Z,99599.53
2022-11-06T00:03:36.406Z,99610.84
2022-11-06T00:06:28.473Z,99614.72
2022-11-06T00:08:55.645Z,99610.69
2022-11-06T00:11:22.460Z,99612.31
2022-11-06T00:13:49.532Z,99624.19
2022-11-06T00:16:16.094Z,99621.81
2022-11-06T00:18:42.703Z,99622.47
2022-11-06T00:21:24.052Z,99620.38
2022-11-06T00:23:51.488Z,99618.81
2022-11-06T00:26:21.221Z,99623.66
2022-11-06T00:28:49.011Z,99629.94
2022-11-06T00:31:19.015Z,99631.03
2022-11-06T00:33:46.122Z,99625.09
2022-11-06T00:36:16.128Z,99630.75
2022-11-06T00:38:43.021Z,99638.97
2022-11-06T00:41:11.650Z,99637.16
2022-11-06T00:43:38.404Z,99641.03
2022-11-06T00:46:12.709Z,99643.31
2022-11-06T00:48:40.666Z,99634.50
2022-11-06T00:51:19.284Z,99645.78
2022-11-06T00:53:46.181Z,99643.31
2022-11-06T00:56:17.901Z,99640.44
2022-11-06T00:58:46.009Z,99632.09
2022-11-06T01:01:18.929Z,99641.97
2022-11-06T01:03:47.475Z,99631.41
2022-11-06T01:06:17.446Z,99646.13
2022-11-06T01:08:44.305Z,99648.34
2022-11-06T01:11:14.900Z,99639.06
2022-11-06T01:13:41.905Z,99655.78
2022-11-06T01:16:11.661Z,99647.91
2022-11-06T01:18:39.346Z,99649.53
2022-11-06T01:21:12.069Z,99646.69
2022-11-06T01:23:38.769Z,99651.19
2022-11-06T01:26:07.860Z,99638.97
2022-11-06T01:28:35.403Z,99652.47
2022-11-06T01:31:03.737Z,99649.38
2022-11-06T01:33:30.514Z,99645.81
2022-11-06T01:35:57.207Z,99641.41
2022-11-06T01:38:23.757Z,99640.88
2022-11-06T01:40:50.361Z,99632.09
2022-11-06T01:43:56.665Z,99646.44
2022-11-06T01:46:28.357Z,99646.81
2022-11-06T01:48:59.953Z,99635.31
2022-11-06T01:51:29.501Z,99635.84
2022-11-06T01:53:56.674Z,99631.78
2022-11-06T01:56:24.286Z,99635.78
2022-11-06T01:58:53.487Z,99634.19
2022-11-06T02:01:20.240Z,99632.75
2022-11-06T02:04:24.317Z,99626.25
2022-11-06T02:06:51.871Z,99626.72
2022-11-06T02:09:19.488Z,99622.94
2022-11-06T02:12:05.882Z,99610.19
2022-11-06T02:14:45.597Z,99618.19
2022-11-06T02:17:48.796Z,99611.25
2022-11-06T02:20:32.512Z,99609.78
2022-11-06T02:23:17.667Z,99615.06
2022-11-06T02:25:44.092Z,99620.00
2022-11-06T02:28:28.420Z,99617.25
2022-11-06T02:30:58.168Z,99615.66
2022-11-06T02:33:36.699Z,99615.53
2022-11-06T02:36:11.788Z,99622.59
2022-11-06T02:38:51.206Z,99625.97
2022-11-06T02:41:42.621Z,99626.72
2022-11-06T02:44:14.710Z,99621.25
2022-11-06T02:46:46.832Z,99630.75
2022-11-06T02:49:42.385Z,99627.44
2022-11-06T02:52:14.308Z,99621.25
2022-11-06T02:54:46.483Z,99627.53
2022-11-06T02:57:15.731Z,99635.16
2022-11-06T02:59:48.178Z,99631.50
2022-11-06T03:02:22.106Z,99630.56
2022-11-06T03:04:57.119Z,99620.38
2022-11-06T03:07:29.010Z,99633.31
2022-11-06T03:09:56.401Z,99624.94
2022-11-06T03:12:30.324Z,99634.47
2022-11-06T03:15:03.287Z,99638.22
2022-11-06T03:17:51.667Z,99644.66
2022-11-06T03:20:23.509Z,99647.03
2022-11-06T03:23:10.885Z,99655.44
2022-11-06T03:25:51.136Z,99650.63
2022-11-06T03:29:04.023Z,99657.56
2022-11-06T03:31:36.960Z,99661.84
2022-11-06T03:34:07.383Z,99666.56
2022-11-06T03:36:42.042Z,99669.19
2022-11-06T03:39:15.749Z,99667.00
2022-11-06T03:41:42.077Z,99675.22
2022-11-06T03:44:13.401Z,99676.53
2022-11-06T03:46:47.956Z,99683.75
2022-11-06T03:49:22.222Z,99686.16
2022-11-06T03:52:04.519Z,99690.97
2022-11-06T03:54:45.303Z,99694.88
2022-11-06T03:57:18.482Z,99690.50
2022-11-06T03:59:49.810Z,99690.97
2022-11-06T04:02:19.238Z,99696.72
2022-11-06T04:04:57.533Z,99686.06
2022-11-06T04:07:30.197Z,99693.59
2022-11-06T04:10:19.411Z,99690.53
2022-11-06T04:13:07.158Z,99699.03
2022-11-06T04:15:40.993Z,99699.72
2022-11-06T04:18:17.052Z,99703.66
2022-11-06T04:21:12.257Z,99700.72
2022-11-06T04:24:12.547Z,99700.91
2022-11-06T04:26:48.234Z,99705.91
2022-11-06T04:29:34.235Z,99693.34
2022-11-06T04:32:19.957Z,99695.91
2022-11-06T04:34:58.361Z,99701.41
2022-11-06T04:37:50.416Z,99710.66
2022-11-06T04:40:25.431Z,99704.84
2022-11-06T04:43:12.021Z,99700.97
2022-11-06T04:45:46.769Z,99699.69
2022-11-06T04:48:14.241Z,99708.56
2022-11-06T04:50:47.949Z,99704.84
2022-11-06T04:53:17.111Z,99705.94
2022-11-06T04:55:56.149Z,99709.66
2022-11-06T04:58:22.703Z,99700.97
2022-11-06T05:00:51.043Z,99702.56
2022-11-06T05:03:18.740Z,99709.31
2022-11-06T05:05:45.521Z,99701.91
2022-11-06T05:08:17.446Z,99713.03
2022-11-06T05:10:44.477Z,99701.63
2022-11-06T05:13:13.727Z,99710.75
2022-11-06T05:15:41.042Z,99706.22
2022-11-06T05:18:08.181Z,99712.50
2022-11-06T05:20:34.978Z,99723.09
2022-11-06T05:23:01.658Z,99715.88
2022-11-06T05:25:40.197Z,99726.00
2022-11-06T05:28:08.105Z,99713.94
2022-11-06T05:30:37.735Z,99712.31
2022-11-06T05:33:04.667Z,99717.97
2022-11-06T05:35:31.193Z,99717.16
2022-11-06T05:38:02.406Z,99713.13
2022-11-06T05:40:29.327Z,99718.91
2022-11-06T05:42:55.836Z,99707.78
2022-11-06T05:45:22.409Z,99704.41
2022-11-06T05:47:48.906Z,99713.75
2022-11-06T05:50:15.481Z,99706.00
2022-11-06T05:52:41.998Z,99703.47
2022-11-06T05:55:14.148Z,99701.84
2022-11-06T05:57:41.505Z,99705.53
2022-11-06T06:00:08.982Z,99712.94
2022-11-06T06:02:36.909Z,99705.84
2022-11-06T06:05:05.018Z,99701.19
2022-11-06T06:07:32.223Z,99697.34
2022-11-06T06:09:58.758Z,99699.56
2022-11-06T06:12:26.443Z,99704.41
2022-11-06T06:14:53.972Z,99706.66
2022-11-06T06:17:21.001Z,99714.53
2022-11-06T06:19:48.463Z,99720.81
2022-11-06T06:22:15.163Z,99716.78
2022-11-06T06:24:41.828Z,99719.50
2022-11-06T06:27:08.425Z,99714.16
2022-11-06T06:29:35.054Z,99729.13
2022-11-06T06:32:01.977Z,99718.63
2022-11-06T06:34:28.525Z,99729.69
2022-11-06T06:36:55.078Z,99715.22
2022-11-06T06:39:21.740Z,99721.88
2022-11-06T06:41:48.735Z,99713.00
2022-11-06T06:44:16.229Z,99720.31
2022-11-06T06:46:42.796Z,99715.94
2022-11-06T06:49:09.601Z,99714.41
2022-11-06T06:51:36.186Z,99721.88
2022-11-06T06:54:02.856Z,99728.22
2022-11-06T06:56:29.394Z,99726.19
2022-11-06T06:58:55.965Z,99719.84
2022-11-06T07:01:22.680Z,99724.22
2022-11-06T07:03:49.483Z,99725.22
2022-11-06T07:06:19.434Z,99721.00
2022-11-06T07:08:46.364Z,99725.78
2022-11-06T07:11:12.956Z,99732.34
2022-11-06T07:13:39.544Z,99739.44
2022-11-06T07:16:08.598Z,99732.25
2022-11-06T07:18:36.272Z,99735.56
2022-11-06T07:21:11.629Z,99744.97
2022-11-06T07:23:39.012Z,99742.34
2022-11-06T07:26:05.965Z,99742.69
2022-11-06T07:28:33.300Z,99748.28
2022-11-06T07:31:01.373Z,99748.16
2022-11-06T07:33:28.105Z,99754.31
2022-11-06T07:35:54.729Z,99756.72
2022-11-06T07:38:21.317Z,99741.97
2022-11-06T07:40:47.883Z,99754.44
2022-11-06T07:43:14.631Z,99747.66
2022-11-06T07:45:42.664Z,99741.56
2022-11-06T07:48:09.234Z,99744.09
2022-11-06T07:50:35.764Z,99736.59
2022-11-06T07:53:03.476Z,99745.09
2022-11-06T07:55:30.412Z,99749.88
2022-11-06T07:57:58.640Z,99744.00
2022-11-06T08:00:25.198Z,99746.59
2022-11-06T08:02:52.971Z,99745.50
2022-11-06T08:05:19.902Z,99744.88
2022-11-06T08:07:46.689Z,99741.03
2022-11-06T08:10:13.199Z,99740.59
2022-11-06T08:12:39.717Z,99743.84
2022-11-06T08:15:06.731Z,99744.06
2022-11-06T08:17:33.310Z,99745.41
2022-11-06T08:19:59.888Z,99744.19
2022-11-06T08:22:26.482Z,99742.81
2022-11-06T08:24:53.018Z,99747.28
2022-11-06T08:27:19.535Z,99755.06
2022-11-06T08:29:46.042Z,99753.41
2022-11-06T08:32:12.592Z,99756.13
2022-11-06T08:34:39.110Z,99757.84
2022-11-06T08:37:05.606Z,99760.09
2022-11-06T08:39:32.260Z,99753.13
2022-11-06T08:41:58.768Z,99752.34
2022-11-06T08:44:25.405Z,99756.22
2022-11-06T08:46:52.507Z,99752.16
2022-11-06T08:49:19.759Z,99745.50
2022-11-06T08:51:46.387Z,99752.22
2022-11-06T08:54:13.168Z,99750.78
2022-11-06T08:56:39.782Z,99754.34
2022-11-06T08:59:06.439Z,99751.91
2022-11-06T09:01:33.102Z,99749.75
2022-11-06T09:03:59.709Z,99745.78
2022-11-06T09:06:26.368Z,99748.47
2022-11-06T09:08:54.266Z,99749.34
2022-11-06T09:11:21.089Z,99742.13
2022-11-06T09:13:47.660Z,99749.53
2022-11-06T09:16:15.970Z,99731.75
2022-11-06T09:18:45.822Z,99742.22
2022-11-06T09:21:12.396Z,99747.78
2022-11-06T09:23:38.981Z,99741.31
2022-11-06T09:26:05.504Z,99734.00
2022-11-06T09:28:32.017Z,99735.81
2022-11-06T09:30:58.540Z,99730.16
2022-11-06T09:33:25.058Z,99735.28
2022-11-06T09:35:51.611Z,99727.84
2022-11-06T09:38:19.129Z,99724.41
2022-11-06T09:40:48.411Z,99715.69
2022-11-06T09:43:50.062Z,99724.44
2022-11-06T09:46:24.647Z,99715.59
2022-11-06T09:48:58.795Z,99718.97
2022-11-06T09:51:46.405Z,99704.56
2022-11-06T09:54:20.235Z,99717.66
2022-11-06T09:56:50.204Z,99706.56
2022-11-06T09:59:20.779Z,99712.06
2022-11-06T10:01:52.575Z,99708.06
2022-11-06T10:04:34.478Z,99701.81
2022-11-06T10:07:00.971Z,99691.94
2022-11-06T10:09:28.454Z,99688.72
2022-11-06T10:12:15.381Z,99687.28
2022-11-06T10:15:08.766Z,99680.44
2022-11-06T10:17:50.542Z,99673.50
2022-11-06T10:20:26.775Z,99675.69
2022-11-06T10:23:25.118Z,99688.44
2022-11-06T10:25:51.654Z,99674.97
2022-11-06T10:28:36.540Z,99675.94
2022-11-06T10:31:23.257Z,99674.94
2022-11-06T10:34:08.378Z,99663.47
2022-11-06T10:36:50.276Z,99682.91
2022-11-06T10:39:28.713Z,99661.59
2022-11-06T10:42:00.552Z,99638.19
2022-11-06T10:44:46.078Z,99658.97
2022-11-06T10:47:21.361Z,99641.38
2022-11-06T10:49:50.755Z,99641.28
2022-11-06T10:52:35.197Z,99637.13
2022-11-06T10:55:20.078Z,99636.69
2022-11-06T10:57:48.859Z,99626.84
2022-11-06T11:00:16.544Z,99620.31
2022-11-06T11:03:35.692Z,99629.03
2022-11-06T11:06:04.981Z,99613.09
2022-11-06T11:08:31.471Z,99614.06
2022-11-06T11:11:15.476Z,99611.50
2022-11-06T11:13:48.242Z,99601.88
2022-11-06T11:16:25.893Z,99596.50
2022-11-06T11:18:52.916Z,99588.81
2022-11-06T11:21:19.388Z,99580.25
2022-11-06T11:24:12.080Z,99581.22
2022-11-06T11:26:47.947Z,99578.25
2022-11-06T11:29:29.156Z,99583.09
2022-11-06T11:32:05.261Z,99590.78
2022-11-06T11:34:35.725Z,99576.63
2022-11-06T11:37:05.685Z,99583.50
2022-11-06T11:39:35.499Z,99592.03
2022-11-06T11:42:25.750Z,99571.94
2022-11-06T11:45:10.380Z,99568.97
2022-11-06T11:47:42.236Z,99577.06
2022-11-06T11:50:31.954Z,99567.06
2022-11-06T11:53:27.845Z,99578.34
2022-11-06T11:55:54.416Z,99569.00
2022-11-06T11:58:28.015Z,99557.53
2022-11-06T12:00:54.405Z,99567.44
2022-11-06T12:03:22.648Z,99556.50
2022-11-06T12:05:49.268Z,99567.22
2022-11-06T12:08:25.246Z,99546.06
2022-11-06T12:10:51.837Z,99552.50
2022-11-06T12:13:22.801Z,99532.72
2022-11-06T12:16:10.526Z,99528.56
2022-11-06T12:18:48.231Z,99524.75
2022-11-06T12:21:22.144Z,99529.53
2022-11-06T12:23:55.724Z,99528.13
2022-11-06T12:26:25.306Z,99517.00
2022-11-06T12:29:03.661Z,99545.03
2022-11-06T12:31:46.525Z,99529.34
2022-11-06T12:34:45.162Z,99529.72
2022-11-06T12:37:39.751Z,99528.91
2022-11-06T12:40:25.565Z,99526.63
2022-11-06T12:43:23.459Z,99521.47
2022-11-06T12:46:11.911Z,99525.78
2022-11-06T12:48:56.657Z,99538.78
2022-11-06T12:51:25.905Z,99527.47
2022-11-06T12:54:16.987Z,99535.50
2022-11-06T12:56:49.523Z,99530.09
2022-11-06T12:59:43.491Z,99530.91
2022-11-06T13:02:28.039Z,99520.91
2022-11-06T13:05:03.017Z,99523.69
2022-11-06T13:07:51.275Z,99530.09
2022-11-06T13:10:32.676Z,99519.13
2022-11-06T13:13:28.189Z,99520.66
2022-11-06T13:16:07.936Z,99523.66
2022-11-06T13:18:41.888Z,99531.91
2022-11-06T13:21:52.750Z,99527.78
2022-11-06T13:24:37.791Z,99515.59
2022-11-06T13:27:31.733Z,99514.50
2022-11-06T13:30:04.465Z,99507.03
2022-11-06T13:32:34.973Z,99510.31
2022-11-06T13:35:03.279Z,99511.25
2022-11-06T13:37:41.869Z,99510.41
2022-11-06T13:40:14.270Z,99509.25
2022-11-06T13:42:48.245Z,99511.50
2022-11-06T13:45:16.602Z,99518.78
2022-11-06T13:48:15.378Z,99513.63
2022-11-06T13:51:09.855Z,99514.56
2022-11-06T13:54:00.261Z,99519.47
2022-11-06T13:56:57.710Z,99514.88
2022-11-06T13:59:59.578Z,99513.50
2022-11-06T14:03:03.882Z,99503.69
2022-11-06T14:05:51.041Z,99510.22
2022-11-06T14:08:26.127Z,99511.22
2022-11-06T14:11:04.925Z,99494.00
2022-11-06T14:13:35.302Z,99490.53
2022-11-06T14:16:25.424Z,99479.81
2022-11-06T14:19:21.080Z,99481.50
2022-11-06T14:21:50.594Z,99477.53
2022-11-06T14:24:20.049Z,99469.56
2022-11-06T14:26:48.949Z,99468.31
2022-11-06T14:29:27.819Z,99472.03
2022-11-06T14:32:13.111Z,99462.84
2022-11-06T14:34:42.316Z,99479.16
2022-11-06T14:37:18.059Z,99467.13
2022-11-06T14:39:59.983Z,99467.69
2022-11-06T14:42:34.477Z,99470.69
2022-11-06T14:45:08.414Z,99471.31
2022-11-06T14:48:01.968Z,99467.09
2022-11-06T14:50:36.019Z,99460.56
2022-11-06T14:53:16.267Z,99468.28
2022-11-06T14:55:58.968Z,99470.44
2022-11-06T14:58:34.227Z,99469.91
2022-11-06T15:01:09.738Z,99472.50
2022-11-06T15:03:52.731Z,99478.53
2022-11-06T15:06:19.205Z,99494.16
2022-11-06T15:08:45.829Z,99492.38
2022-11-06T15:11:30.776Z,99487.41
2022-11-06T15:14:04.572Z,99495.84
2022-11-06T15:16:50.767Z,99488.03
2022-11-06T15:19:28.113Z,99474.16
2022-11-06T15:22:14.070Z,99476.91
2022-11-06T15:24:52.208Z,99470.22
2022-11-06T15:27:22.069Z,99467.97
2022-11-06T15:29:52.646Z,99466.88
2022-11-06T15:32:23.016Z,99456.59
2022-11-06T15:34:54.448Z,99458.00
2022-11-06T15:37:24.995Z,99444.41
2022-11-06T15:40:00.339Z,99440.19
2022-11-06T15:42:47.061Z,99437.34
2022-11-06T15:45:16.296Z,99442.31
2022-11-06T15:48:01.286Z,99441.78
2022-11-06T15:50:32.782Z,99437.34
2022-11-06T15:53:15.123Z,99431.97
2022-11-06T15:55:44.630Z,99424.06
2022-11-06T15:58:29.532Z,99432.03
2022-11-06T16:00:58.503Z,99432.75
2022-11-06T16:03:27.723Z,99424.78
2022-11-06T16:05:56.575Z,99424.53
2022-11-06T16:08:26.184Z,99423.53
2022-11-06T16:10:54.768Z,99418.50
2022-11-06T16:13:24.262Z,99424.53
2022-11-06T16:16:01.769Z,99414.28
2022-11-06T16:18:39.422Z,99419.75
2022-11-06T16:21:11.466Z,99416.31
2022-11-06T16:23:41.508Z,99415.19
2022-11-06T16:26:15.258Z,99423.63
2022-11-06T16:28:45.635Z,99416.53
2022-11-06T16:31:19.136Z,99417.69
2022-11-06T16:33:59.782Z,99413.94
2022-11-06T16:36:29.582Z,99424.09
2022-11-06T16:39:48.092Z,99420.53
2022-11-06T16:42:36.168Z,99418.56
2022-11-06T16:45:08.629Z,99422.66
2022-11-06T16:47:35.982Z,99432.16
2022-11-06T16:50:05.925Z,99424.72
2022-11-06T16:52:40.235Z,99422.06
2022-11-06T16:55:23.858Z,99428.19
2022-11-06T16:57:59.506Z,99422.72
2022-11-06T17:00:29.343Z,99421.69
2022-11-06T17:03:03.047Z,99421.38
2022-11-06T17:05:32.171Z,99420.03
2022-11-06T17:08:32.421Z,99417.97
2022-11-06T17:11:14.392Z,99423.03
2022-11-06T17:13:44.406Z,99423.75
2022-11-06T17:16:16.842Z,99414.13
2022-11-06T17:18:43.423Z,99414.97
2022-11-06T17:21:15.721Z,99413.53
2022-11-06T17:23:43.237Z,99405.53
2022-11-06T17:26:28.293Z,99409.66
2022-11-06T17:28:56.216Z,99399.91
2022-11-06T17:31:23.963Z,99397.28
2022-11-06T17:33:50.893Z,99398.53
2022-11-06T17:36:25.119Z,99405.63
2022-11-06T17:38:52.773Z,99397.63
2022-11-06T17:41:31.263Z,99392.00
2022-11-06T17:44:07.569Z,99400.63
2022-11-06T17:46:46.383Z,99404.31
2022-11-06T17:49:17.525Z,99414.41
2022-11-06T17:51:52.392Z,99412.19
2022-11-06T17:54:25.419Z,99414.34
2022-11-06T17:56:53.710Z,99419.59
2022-11-06T17:59:20.941Z,99412.31
2022-11-06T18:01:50.438Z,99434.88
2022-11-06T18:04:18.543Z,99430.47
2022-11-06T18:06:49.497Z,99436.66
2022-11-06T18:09:16.226Z,99436.97
2022-11-06T18:11:43.349Z,99443.53
2022-11-06T18:14:10.681Z,99444.09
2022-11-06T18:16:43.567Z,99444.94
2022-11-06T18:19:12.282Z,99452.56
2022-11-06T18:21:38.793Z,99443.63
2022-11-06T18:24:05.801Z,99437.41
2022-11-06T18:26:32.386Z,99436.34
2022-11-06T18:28:59.000Z,99439.97
2022-11-06T18:31:25.616Z,99439.16
2022-11-06T18:33:52.182Z,99432.72
2022-11-06T18:36:18.896Z,99444.47
2022-11-06T18:38:45.458Z,99431.75
2022-11-06T18:41:17.770Z,99426.59
2022-11-06T18:43:44.878Z,99427.25
2022-11-06T18:46:13.712Z,99425.69
2022-11-06T18:48:40.502Z,99427.94
2022-11-06T18:51:10.308Z,99420.22
2022-11-06T18:53:38.448Z,99415.66
2022-11-06T18:56:08.407Z,99416.72
2022-11-06T18:58:35.291Z,99425.09
2022-11-06T19:01:06.944Z,99421.81
2022-11-06T19:03:34.517Z,99420.34
2022-11-06T19:06:01.281Z,99416.94
2022-11-06T19:08:27.926Z,99407.00
2022-11-06T19:10:54.531Z,99410.66
2022-11-06T19:13:21.120Z,99411.25
2022-11-06T19:15:48.171Z,99411.88
2022-11-06T19:18:15.534Z,99403.38
2022-11-06T19:20:42.911Z,99404.09
2022-11-06T19:23:13.758Z,99402.63
2022-11-06T19:25:43.543Z,99393.00
2022-11-06T19:28:10.439Z,99396.69
2022-11-06T19:30:37.333Z,99397.00
2022-11-06T19:33:04.424Z,99379.53
2022-11-06T19:35:31.917Z,99393.00
2022-11-06T19:37:58.829Z,99389.00
2022-11-06T19:40:25.403Z,99400.88
2022-11-06T19:42:51.939Z,99380.34
2022-11-06T19:45:18.560Z,99391.38
2022-11-06T19:47:45.145Z,99391.56
2022-11-06T19:50:11.729Z,99381.28
2022-11-06T19:52:41.171Z,99384.72
2022-11-06T19:55:25.732Z,99388.88
2022-11-06T19:57:54.825Z,99382.06
2022-11-06T20:00:21.333Z,99382.25
2022-11-06T20:02:51.049Z,99373.47
2022-11-06T20:05:17.784Z,99375.97
2022-11-06T20:07:44.290Z,99378.25
2022-11-06T20:10:11.302Z,99366.72
2022-11-06T20:12:37.876Z,99362.75
2022-11-06T20:15:04.949Z,99359.97
2022-11-06T20:17:31.505Z,99354.50
2022-11-06T20:19:58.437Z,99359.50
2022-11-06T20:22:25.430Z,99360.63
2022-11-06T20:24:52.143Z,99360.31
2022-11-06T20:27:18.825Z,99354.03
2022-11-06T20:29:45.488Z,99352.31
2022-11-06T20:32:17.671Z,99353.28
2022-11-06T20:34:45.727Z,99355.91
2022-11-06T20:37:12.548Z,99353.63
2022-11-06T20:39:39.130Z,99345.41
2022-11-06T20:42:05.667Z,99353.09
2022-11-06T20:44:32.307Z,99351.75
2022-11-06T20:46:59.014Z,99360.44
2022-11-06T20:49:25.570Z,99357.03
2022-11-06T20:52:12.091Z,99357.25
2022-11-06T20:54:43.734Z,99361.84
2022-11-06T20:57:13.234Z,99365.38
2022-11-06T20:59:39.772Z,99374.13
2022-11-06T21:02:06.561Z,99361.34
2022-11-06T21:04:33.228Z,99361.41
2022-11-06T21:06:59.762Z,99358.28
2022-11-06T21:09:26.327Z,99365.44
2022-11-06T21:11:52.904Z,99358.44
2022-11-06T21:14:19.563Z,99351.72
2022-11-06T21:16:46.187Z,99352.84
2022-11-06T21:19:12.837Z,99354.13
2022-11-06T21:21:39.640Z,99352.06
2022-11-06T21:24:06.973Z,99350.69
2022-11-06T21:26:36.817Z,99362.25
2022-11-06T21:29:06.138Z,99355.56
2022-11-06T21:31:33.136Z,99353.72
2022-11-06T21:34:01.596Z,99353.22
2022-11-06T21:36:31.213Z,99356.66
2022-11-06T21:39:00.389Z,99345.50
2022-11-06T21:41:29.486Z,99345.16
2022-11-06T21:43:56.813Z,99350.28
2022-11-06T21:46:23.604Z,99350.44
2022-11-06T21:48:50.827Z,99349.53
2022-11-06T21:51:22.947Z,99344.78
2022-11-06T21:54:09.126Z,99339.75
2022-11-06T21:56:36.832Z,99332.09
2022-11-06T21:59:05.301Z,99331.56
2022-11-06T22:01:32.409Z,99329.09
2022-11-06T22:03:59.708Z,99329.41
2022-11-06T22:06:27.742Z,99326.56
2022-11-06T22:08:55.847Z,99332.03
2022-11-06T22:11:28.311Z,99333.88
2022-11-06T22:13:57.334Z,99332.16
2022-11-06T22:16:27.325Z,99342.56
2022-11-06T22:18:54.165Z,99327.75
2022-11-06T22:21:23.308Z,99335.75
2022-11-06T22:23:50.528Z,99327.09
2022-11-06T22:26:19.195Z,99327.34
2022-11-06T22:28:46.371Z,99319.34
2022-11-06T22:31:13.049Z,99319.91
2022-11-06T22:33:39.929Z,99319.25
2022-11-06T22:36:12.818Z,99319.69
2022-11-06T22:38:41.478Z,99320.38
2022-11-06T22:41:15.543Z,99320.56
2022-11-06T22:43:42.923Z,99311.91
2022-11-06T22:46:13.162Z,99323.31
2022-11-06T22:48:40.185Z,99318.03
2022-11-06T22:51:16.067Z,99313.22
2022-11-06T22:53:42.715Z,99313.41
2022-11-06T22:56:09.779Z,99304.31
2022-11-06T22:58:36.467Z,99311.16
2022-11-06T23:01:03.235Z,99309.78
2022-11-06T23:03:30.927Z,99306.53
2022-11-06T23:05:58.330Z,99313.81
2022-11-06T23:08:26.444Z,99317.88
2022-11-06T23:10:54.777Z,99315.25
2022-11-06T23:13:21.863Z,99313.66
2022-11-06T23:15:48.950Z,99312.63
2022-11-06T23:18:15.734Z,99319.94
2022-11-06T23:20:42.469Z,99310.94
2022-11-06T23:23:09.295Z,99316.38
2022-11-06T23:25:36.041Z,99315.41
2022-11-06T23:28:02.954Z,99318.31
2022-11-06T23:30:32.335Z,99318.00
2022-11-06T23:32:59.131Z,99315.19
2022-11-06T23:35:31.937Z,99309.50
2022-11-06T23:37:59.188Z,99314.72
2022-11-06T23:40:25.972Z,99320.50
2022-11-06T23:42:54.652Z,99315.13
2022-11-06T23:45:39.861Z,99312.59
2022-11-06T23:48:13.250Z,99317.50
2022-11-06T23:50:40.496Z,99319.91
2022-11-06T23:53:07.630Z,99320.72
2022-11-06T23:55:34.234Z,99325.38
2022-11-06T23:58:00.921Z,99311.59
